createdAt,value
2018-09-13T02:09:26.909Z,97.23
2018-09-13T04:12:45.307Z,94.50
2018-09-13T04:18:00.573Z,95.28
2018-09-13T04:23:30.871Z,95.89
2018-09-13T04:26:30.921Z,96.20
2018-09-13T04:29:03.185Z,97.11
2018-09-13T04:31:34.042Z,97.76
2018-09-13T04:34:03.931Z,97.59
2018-09-13T04:36:34.170Z,97.74
2018-09-13T04:39:04.585Z,97.89
2018-09-13T04:41:37.472Z,98.60
2018-09-13T04:44:08.118Z,98.58
2018-09-13T04:46:39.911Z,98.95
2018-09-13T04:49:10.432Z,99.59
2018-09-13T04:51:41.342Z,98.44
2018-09-13T05:11:42.870Z,97.44
2018-09-13T05:14:13.455Z,97.47
2018-09-13T05:16:44.916Z,97.35
2018-09-13T05:19:18.075Z,97.87
2018-09-13T05:59:46.353Z,98.28
2018-09-13T06:02:16.329Z,97.76
2018-09-13T06:05:36.238Z,97.36
2018-09-13T06:11:06.151Z,97.84
2018-09-13T06:13:36.188Z,96.57
2018-09-13T06:16:06.668Z,96.07
2018-09-13T06:21:34.185Z,95.51
2018-09-13T06:24:04.243Z,95.23
2018-09-13T06:26:35.535Z,94.86
2018-09-13T06:32:07.340Z,95.83
2018-09-13T06:34:37.289Z,95.37
2018-09-13T06:37:08.415Z,95.11
2018-09-13T07:34:48.533Z,80.68
2018-09-13T07:43:28.298Z,73.83
2018-09-13T07:45:58.995Z,76.89
2018-09-13T07:48:35.281Z,75.48
2018-09-13T07:54:04.338Z,72.97
2018-09-13T07:56:34.701Z,74.07
2018-09-13T07:59:05.372Z,74.26
2018-09-13T08:01:38.071Z,75.37
2018-09-13T08:04:10.303Z,74.12
2018-09-13T08:06:40.998Z,73.77
2018-09-13T08:09:14.055Z,73.26
2018-09-13T08:11:47.277Z,73.94
2018-09-13T08:14:21.735Z,72.67
2018-09-13T08:16:53.496Z,74.06
2018-09-13T08:19:26.374Z,71.71
2018-09-13T08:21:59.416Z,69.93
2018-09-13T08:24:30.640Z,63.21
2018-09-13T08:27:00.571Z,59.25
2018-09-13T08:29:31.887Z,57.03
2018-09-13T08:32:02.289Z,55.82
2018-09-13T08:34:39.017Z,56.18
2018-09-13T08:37:09.109Z,55.99
2018-09-13T08:39:39.083Z,56.41
2018-09-13T08:42:11.294Z,52.87
2018-09-13T08:44:42.716Z,49.93
2018-09-13T08:47:13.564Z,47.95
2018-09-13T08:49:43.609Z,48.58
2018-09-13T08:52:14.419Z,49.90
2018-09-13T08:54:47.786Z,49.75
2018-09-13T08:57:21.330Z,50.75
2018-09-13T08:59:52.557Z,50.98
2018-09-13T09:02:22.299Z,53.12
2018-09-13T09:04:55.346Z,52.12
2018-09-13T09:07:26.311Z,51.25
2018-09-13T09:09:56.051Z,50.30
2018-09-13T09:12:26.054Z,52.84
2018-09-13T09:14:58.372Z,53.62
2018-09-13T09:17:28.798Z,54.20
2018-09-13T09:19:59.567Z,55.55
2018-09-13T09:22:30.635Z,54.98
2018-09-13T09:25:13.582Z,55.20
2018-09-13T09:27:43.424Z,57.22
2018-09-13T09:30:15.588Z,57.34
2018-09-13T09:32:48.207Z,56.87
2018-09-13T09:35:18.930Z,59.29
2018-09-13T09:37:58.297Z,61.59
2018-09-13T09:40:29.017Z,58.56
2018-09-13T09:42:59.227Z,59.35
2018-09-13T09:45:30.181Z,60.64
2018-09-13T09:48:00.546Z,60.71
2018-09-13T09:50:32.038Z,59.75
2018-09-13T09:53:02.724Z,58.43
2018-09-13T09:55:34.499Z,59.01
2018-09-13T09:58:04.396Z,59.05
2018-09-13T10:00:39.165Z,58.46
2018-09-13T10:06:10.403Z,55.18
2018-09-13T10:08:41.007Z,54.33
2018-09-13T10:11:12.555Z,53.33
2018-09-13T10:13:42.742Z,53.87
2018-09-13T10:16:20.561Z,54.70
2018-09-13T10:19:22.630Z,56.39
2018-09-13T10:21:58.789Z,58.40
2018-09-13T10:24:35.970Z,56.94
2018-09-13T10:27:10.917Z,58.24
2018-09-13T10:29:52.856Z,58.13
2018-09-13T10:32:27.804Z,55.96
2018-09-13T10:35:05.181Z,57.42
2018-09-13T10:37:41.445Z,57.46
2018-09-13T10:40:17.843Z,59.11
2018-09-13T10:42:53.266Z,59.29
2018-09-13T10:46:31.999Z,57.31
2018-09-13T10:49:07.002Z,57.33
2018-09-13T10:51:42.444Z,57.34
2018-09-13T10:54:18.989Z,55.48
2018-09-13T10:56:57.004Z,54.77
2018-09-13T10:59:26.793Z,53.77
2018-09-13T11:01:57.830Z,55.01
2018-09-13T11:04:29.064Z,54.90
2018-09-13T11:07:01.485Z,52.50
2018-09-13T11:09:31.960Z,52.22
2018-09-13T11:12:10.810Z,52.12
2018-09-13T11:14:56.624Z,51.95
2018-09-13T11:17:27.931Z,52.12
2018-09-13T11:19:59.624Z,50.06
2018-09-13T11:22:30.411Z,50.26
2018-09-13T11:25:02.727Z,50.11
2018-09-13T11:27:32.511Z,47.94
2018-09-13T11:30:02.285Z,46.97
2018-09-13T11:32:32.964Z,47.95
2018-09-13T11:35:02.703Z,48.06
2018-09-13T11:37:33.833Z,48.32
2018-09-13T11:40:05.055Z,47.41
2018-09-13T11:42:34.827Z,46.60
2018-09-13T11:45:06.272Z,46.54
2018-09-13T11:47:37.361Z,48.55
2018-09-13T11:50:08.710Z,49.45
2018-09-13T11:52:38.539Z,44.60
2018-09-13T11:55:09.793Z,43.87
2018-09-13T11:57:40.193Z,41.28
2018-09-13T12:00:10.395Z,43.26
2018-09-13T12:02:55.656Z,43.69
2018-09-13T12:05:26.230Z,44.89
2018-09-13T12:07:55.989Z,43.90
2018-09-13T12:10:29.465Z,43.81
2018-09-13T12:12:59.952Z,45.54
2018-09-13T12:15:30.352Z,44.09
2018-09-13T12:18:01.283Z,45.86
2018-09-13T12:20:31.956Z,45.27
2018-09-13T12:23:04.841Z,45.31
2018-09-13T12:25:34.757Z,46.02
2018-09-13T12:28:05.996Z,45.86
2018-09-13T12:30:44.256Z,44.26
2018-09-13T12:33:15.494Z,45.25
2018-09-13T12:35:45.589Z,44.24
2018-09-13T12:38:17.697Z,45.29
2018-09-13T12:40:47.431Z,46.02
2018-09-13T12:43:17.369Z,46.19
2018-09-13T12:45:47.648Z,46.45
2018-09-13T12:48:18.884Z,47.68
2018-09-13T12:50:49.249Z,47.46
2018-09-13T12:53:21.757Z,46.82
2018-09-13T12:55:54.818Z,46.01
2018-09-13T12:58:27.456Z,46.69
2018-09-13T13:00:59.305Z,46.86
2018-09-13T13:03:32.795Z,46.39
2018-09-13T13:06:04.031Z,46.57
2018-09-13T13:08:36.002Z,43.87
2018-09-13T13:11:06.115Z,43.05
2018-09-13T13:13:38.766Z,42.67
2018-09-13T13:16:10.993Z,43.16
2018-09-13T13:18:43.026Z,43.72
2018-09-13T13:21:13.726Z,41.48
2018-09-13T13:23:45.099Z,41.64
2018-09-13T13:26:16.718Z,40.39
2018-09-13T13:28:48.584Z,38.34
2018-09-13T13:31:18.349Z,35.58
2018-09-13T13:33:47.983Z,35.53
2018-09-13T13:36:18.281Z,37.31
2018-09-13T13:41:55.380Z,40.13
2018-09-13T13:44:49.876Z,38.09
2018-09-13T13:47:21.102Z,36.99
2018-09-13T13:49:57.813Z,38.91
2018-09-13T13:52:32.788Z,40.86
2018-09-13T13:55:03.529Z,41.10
2018-09-13T13:57:35.244Z,41.44
2018-09-13T14:00:15.023Z,44.00
2018-09-13T14:02:47.864Z,41.66
2018-09-13T14:05:33.521Z,41.03
2018-09-13T14:08:06.410Z,41.02
2018-09-13T14:10:38.877Z,40.82
2018-09-13T14:13:09.217Z,42.70
2018-09-13T14:15:39.232Z,43.45
2018-09-13T14:18:09.572Z,44.01
2018-09-13T14:20:41.505Z,44.08
2018-09-13T14:23:18.362Z,42.81
2018-09-13T14:25:48.507Z,40.39
2018-09-13T14:28:18.460Z,36.81
2018-09-13T14:30:48.501Z,36.51
2018-09-13T14:33:22.626Z,37.99
2018-09-13T14:35:53.690Z,36.38
2018-09-13T14:38:24.846Z,37.66
2018-09-13T14:41:00.274Z,38.02
2018-09-13T14:43:30.201Z,37.44
2018-09-13T14:46:00.544Z,38.32
2018-09-13T14:48:35.073Z,41.14
2018-09-13T14:51:06.131Z,41.86
2018-09-13T14:53:37.283Z,43.87
2018-09-13T14:56:10.372Z,44.92
2018-09-13T14:58:42.676Z,47.16
2018-09-13T15:01:16.567Z,48.70
2018-09-13T15:03:54.792Z,50.12
2018-09-13T15:06:25.993Z,52.04
2018-09-13T15:08:57.650Z,52.25
2018-09-13T15:11:33.925Z,53.31
2018-09-13T15:14:20.084Z,54.66
2018-09-13T15:17:02.905Z,55.51
2018-09-13T15:19:40.256Z,55.22
2018-09-13T15:22:16.138Z,56.50
2018-09-13T15:24:58.367Z,57.64
2018-09-13T15:27:38.800Z,58.06
2018-09-13T15:30:24.620Z,58.29
2018-09-13T15:33:08.813Z,58.27
2018-09-13T15:35:42.790Z,58.75
2018-09-13T15:38:34.939Z,60.08
2018-09-13T15:41:06.783Z,60.69
2018-09-13T15:43:37.201Z,60.70
2018-09-13T15:46:23.828Z,61.22
2018-09-13T15:49:15.049Z,62.08
2018-09-13T15:52:11.399Z,61.39
2018-09-13T15:55:08.348Z,60.94
2018-09-13T16:00:54.135Z,61.91
2018-09-13T16:03:24.307Z,63.41
2018-09-13T16:05:54.441Z,69.08
2018-09-13T16:08:34.473Z,72.12
2018-09-13T16:11:05.105Z,78.59
2018-09-13T16:13:35.444Z,81.45
2018-09-13T16:16:19.613Z,84.98
2018-09-13T16:19:10.112Z,88.46
2018-09-13T16:30:56.333Z,95.86
2018-09-13T16:33:35.188Z,97.38
2018-09-13T16:38:56.846Z,98.88
2018-09-13T16:47:32.752Z,98.40
2018-09-13T16:50:04.694Z,96.54
2018-09-13T16:52:35.311Z,97.59
2018-09-13T17:00:57.608Z,98.63
2018-09-13T17:03:28.798Z,99.96
2018-09-13T17:06:03.581Z,100.00
2018-09-13T17:08:35.498Z,100.00
2018-09-13T17:11:14.041Z,100.00
2018-09-13T17:13:46.477Z,100.00
2018-09-13T17:16:23.192Z,100.00
2018-09-13T17:18:55.361Z,99.95
2018-09-13T17:23:59.433Z,100.00
2018-09-13T17:26:34.653Z,100.00
2018-09-13T17:29:12.178Z,100.00
2018-09-13T17:31:43.901Z,100.00
2018-09-13T17:34:14.878Z,100.00
2018-09-13T17:36:47.865Z,100.00
2018-09-13T17:39:20.178Z,100.00
2018-09-13T17:42:13.606Z,100.00
2018-09-13T17:44:45.920Z,100.00
2018-09-13T17:47:18.035Z,100.00
2018-09-13T17:49:48.615Z,100.00
2018-09-13T17:52:19.123Z,100.00
2018-09-13T17:54:53.900Z,100.00
2018-09-13T17:57:31.718Z,100.00
2018-09-13T18:00:06.038Z,100.00
2018-09-13T18:02:48.795Z,100.00
2018-09-13T18:05:23.871Z,100.00
2018-09-13T18:08:02.762Z,100.00
2018-09-13T18:10:34.926Z,100.00
2018-09-13T18:13:06.592Z,100.00
2018-09-13T18:15:54.376Z,100.00
2018-09-13T18:18:31.748Z,100.00
2018-09-13T18:21:11.580Z,100.00
2018-09-13T18:23:42.392Z,100.00
2018-09-13T18:26:26.283Z,100.00
2018-09-13T18:28:57.571Z,100.00
2018-09-13T18:31:33.556Z,100.00
2018-09-13T18:36:53.870Z,100.00
2018-09-13T18:39:31.823Z,100.00
2018-09-13T18:42:04.341Z,100.00
2018-09-13T18:44:38.988Z,100.00
2018-09-13T18:47:12.650Z,100.00
2018-09-13T18:49:44.355Z,100.00
2018-09-13T18:52:18.355Z,100.00
2018-09-13T18:54:56.637Z,100.00
2018-09-13T18:57:30.203Z,100.00
2018-09-13T19:00:04.671Z,100.00
2018-09-13T19:02:43.479Z,100.00
2018-09-13T19:05:14.315Z,100.00
2018-09-13T19:07:45.655Z,100.00
2018-09-13T19:10:21.051Z,100.00
2018-09-13T19:12:54.722Z,100.00
2018-09-13T19:15:31.630Z,100.00
2018-09-13T19:18:14.312Z,100.00
2018-09-13T19:20:55.806Z,100.00
2018-09-13T19:23:31.326Z,100.00
2018-09-13T19:26:08.176Z,100.00
2018-09-13T19:31:34.108Z,100.00
2018-09-13T19:34:16.632Z,100.00
2018-09-13T19:36:56.812Z,100.00
2018-09-13T19:42:41.734Z,100.00
2018-09-13T19:45:25.313Z,100.00
2018-09-13T19:48:08.298Z,100.00
2018-09-13T19:50:41.835Z,100.00
2018-09-13T19:53:12.490Z,100.00
2018-09-13T19:55:45.374Z,100.00
2018-09-13T19:58:20.580Z,100.00
2018-09-13T20:00:54.395Z,100.00
2018-09-13T20:03:37.488Z,100.00
2018-09-13T20:06:12.156Z,100.00
2018-09-13T20:08:43.386Z,100.00
2018-09-13T20:11:18.596Z,100.00
2018-09-13T20:13:48.698Z,100.00
2018-09-13T20:16:20.813Z,100.00
2018-09-13T20:18:53.837Z,100.00
2018-09-13T20:21:29.647Z,100.00
2018-09-13T20:24:02.167Z,100.00
2018-09-13T20:26:37.942Z,100.00
2018-09-13T20:29:11.977Z,100.00
2018-09-13T20:31:43.233Z,100.00
2018-09-13T20:34:15.169Z,100.00
2018-09-13T20:36:45.000Z,100.00
2018-09-13T20:39:15.280Z,100.00
2018-09-13T20:41:45.452Z,100.00
2018-09-13T20:44:17.829Z,100.00
2018-09-13T20:46:56.028Z,100.00
2018-09-13T20:49:30.642Z,100.00
2018-09-13T20:52:06.624Z,100.00
2018-09-13T20:54:41.603Z,100.00
2018-09-13T20:57:14.621Z,100.00
2018-09-13T20:59:49.153Z,100.00
2018-09-13T21:02:21.000Z,100.00
2018-09-13T21:04:57.078Z,100.00
2018-09-13T21:07:28.942Z,100.00
2018-09-13T21:10:02.591Z,100.00
2018-09-13T21:12:33.566Z,100.00
2018-09-13T21:15:06.339Z,100.00
2018-09-13T21:17:36.589Z,100.00
2018-09-13T21:20:11.473Z,100.00
2018-09-13T21:22:42.308Z,100.00
2018-09-13T21:25:12.687Z,100.00
2018-09-13T21:27:44.499Z,100.00
2018-09-13T21:30:14.464Z,100.00
2018-09-13T21:32:45.170Z,100.00
2018-09-13T21:35:14.894Z,100.00
2018-09-13T21:37:46.066Z,100.00
2018-09-13T21:40:16.596Z,100.00
2018-09-13T21:42:47.081Z,100.00
2018-09-13T21:45:17.930Z,100.00
2018-09-13T21:47:49.214Z,100.00
2018-09-13T21:50:21.191Z,100.00
2018-09-13T21:52:57.521Z,100.00
2018-09-13T21:55:31.352Z,100.00
2018-09-13T21:58:01.189Z,100.00
2018-09-13T22:00:32.035Z,100.00
2018-09-13T22:03:01.753Z,100.00
2018-09-13T22:05:31.767Z,100.00
2018-09-13T22:08:01.991Z,100.00
2018-09-13T22:10:31.897Z,100.00
2018-09-13T22:13:01.658Z,100.00
2018-09-13T22:15:32.126Z,100.00
2018-09-13T22:18:02.396Z,100.00
2018-09-13T22:20:32.674Z,100.00
2018-09-13T22:23:02.445Z,100.00
2018-09-13T22:25:32.552Z,100.00
2018-09-13T22:28:02.305Z,100.00
2018-09-13T22:30:32.631Z,100.00
2018-09-13T22:33:07.791Z,100.00
2018-09-13T22:35:38.295Z,100.00
2018-09-13T22:38:08.801Z,100.00
2018-09-13T22:40:42.093Z,100.00
2018-09-13T22:43:17.646Z,100.00
2018-09-13T22:45:47.306Z,100.00
2018-09-13T22:48:18.980Z,100.00
2018-09-13T22:50:49.212Z,100.00
2018-09-13T22:53:21.890Z,100.00
2018-09-13T22:55:52.969Z,100.00
2018-09-13T22:58:27.756Z,100.00
2018-09-13T23:00:58.506Z,100.00
2018-09-13T23:03:28.487Z,100.00
2018-09-13T23:05:58.155Z,100.00
2018-09-13T23:08:29.104Z,100.00
2018-09-13T23:11:01.806Z,100.00
2018-09-13T23:13:33.715Z,100.00
2018-09-13T23:16:03.554Z,100.00
2018-09-13T23:18:33.208Z,100.00
2018-09-13T23:21:02.905Z,100.00
2018-09-13T23:23:36.584Z,100.00
2018-09-13T23:26:07.306Z,100.00
2018-09-13T23:28:37.779Z,100.00
2018-09-13T23:31:07.959Z,100.00
2018-09-13T23:33:38.073Z,100.00
2018-09-13T23:36:07.791Z,100.00
2018-09-13T23:38:37.614Z,100.00
2018-09-13T23:41:07.139Z,100.00
2018-09-13T23:43:37.589Z,100.00
2018-09-13T23:46:07.217Z,100.00
2018-09-13T23:48:37.721Z,100.00
2018-09-13T23:51:07.919Z,100.00
2018-09-13T23:53:37.545Z,100.00
2018-09-13T23:56:07.207Z,100.00
2018-09-13T23:58:38.157Z,100.00
